sensor_id;sensor_type;location;lat;lon;timestamp;pressure;altitude;pressure_sealevel;temperature;humidity
77897;BME280;67092;64.282;21.056;2023-03-12T00:00:43;99104.95;;;21.91;16.96
77897;BME280;67092;64.282;21.056;2023-03-12T00:03:08;99107.36;;;21.49;16.91
77897;BME280;67092;64.282;21.056;2023-03-12T00:05:36;99107.16;;;21.33;16.96
77897;BME280;67092;64.282;21.056;2023-03-12T00:07:59;99102.41;;;21.65;16.88
77897;BME280;67092;64.282;21.056;2023-03-12T00:10:25;99100.31;;;21.16;17.05
77897;BME280;67092;64.282;21.056;2023-03-12T00:12:51;99096.86;;;21.28;16.89
77897;BME280;67092;64.282;21.056;2023-03-12T00:15:16;99094.76;;;21.73;16.77
77897;BME280;67092;64.282;21.056;2023-03-12T00:17:42;99093.73;;;21.47;16.89
77897;BME280;67092;64.282;21.056;2023-03-12T00:20:08;99094.52;;;21.52;16.84
77897;BME280;67092;64.282;21.056;2023-03-12T00:22:33;99093.61;;;21.31;16.94
77897;BME280;67092;64.282;21.056;2023-03-12T00:24:59;99090.97;;;21.71;16.82
77897;BME280;67092;64.282;21.056;2023-03-12T00:27:26;99091.18;;;21.03;16.95
77897;BME280;67092;64.282;21.056;2023-03-12T00:29:50;99091.12;;;21.41;16.80
77897;BME280;67092;64.282;21.056;2023-03-12T00:32:16;99091.14;;;21.35;16.65
77897;BME280;67092;64.282;21.056;2023-03-12T00:34:41;99093.12;;;21.05;16.82
77897;BME280;67092;64.282;21.056;2023-03-12T00:37:08;99091.26;;;21.68;16.54
77897;BME280;67092;64.282;21.056;2023-03-12T00:39:33;99090.46;;;21.63;16.60
77897;BME280;67092;64.282;21.056;2023-03-12T00:41:58;99091.00;;;21.52;16.98
77897;BME280;67092;64.282;21.056;2023-03-12T00:44:35;99090.15;;;21.48;16.85
77897;BME280;67092;64.282;21.056;2023-03-12T00:46:49;99089.44;;;21.31;16.94
77897;BME280;67092;64.282;21.056;2023-03-12T00:49:15;99087.12;;;21.09;17.08
77897;BME280;67092;64.282;21.056;2023-03-12T00:51:41;99086.90;;;21.61;16.79
77897;BME280;67092;64.282;21.056;2023-03-12T00:54:07;99083.81;;;21.48;16.94
77897;BME280;67092;64.282;21.056;2023-03-12T00:56:32;99082.49;;;20.53;17.23
77897;BME280;67092;64.282;21.056;2023-03-12T00:58:58;99081.01;;;21.26;16.90
77897;BME280;67092;64.282;21.056;2023-03-12T01:01:23;99076.67;;;21.19;17.08
77897;BME280;67092;64.282;21.056;2023-03-12T01:03:49;99080.04;;;21.30;16.82
77897;BME280;67092;64.282;21.056;2023-03-12T01:06:15;99076.51;;;20.91;16.87
77897;BME280;67092;64.282;21.056;2023-03-12T01:08:40;99076.64;;;21.22;16.69
77897;BME280;67092;64.282;21.056;2023-03-12T01:11:06;99077.00;;;21.11;17.05
77897;BME280;67092;64.282;21.056;2023-03-12T01:13:32;99074.63;;;20.89;16.84
77897;BME280;67092;64.282;21.056;2023-03-12T01:15:57;99076.82;;;21.74;16.60
77897;BME280;67092;64.282;21.056;2023-03-12T01:18:23;99077.32;;;21.10;16.82
77897;BME280;67092;64.282;21.056;2023-03-12T01:20:49;99075.07;;;21.13;16.78
77897;BME280;67092;64.282;21.056;2023-03-12T01:23:14;99076.31;;;21.09;16.81
77897;BME280;67092;64.282;21.056;2023-03-12T01:25:40;99075.58;;;21.42;16.63
77897;BME280;67092;64.282;21.056;2023-03-12T01:28:06;99070.51;;;21.28;16.72
77897;BME280;67092;64.282;21.056;2023-03-12T01:30:31;99067.68;;;21.36;16.79
77897;BME280;67092;64.282;21.056;2023-03-12T01:32:57;99068.98;;;21.23;16.88
77897;BME280;67092;64.282;21.056;2023-03-12T01:35:23;99069.88;;;21.22;16.82
77897;BME280;67092;64.282;21.056;2023-03-12T01:37:48;99068.78;;;21.25;16.88
77897;BME280;67092;64.282;21.056;2023-03-12T01:40:15;99068.67;;;21.20;16.84
77897;BME280;67092;64.282;21.056;2023-03-12T01:42:39;99068.98;;;21.33;16.74
77897;BME280;67092;64.282;21.056;2023-03-12T01:47:31;99068.19;;;20.83;16.73
77897;BME280;67092;64.282;21.056;2023-03-12T01:49:57;99069.84;;;21.00;16.81
77897;BME280;67092;64.282;21.056;2023-03-12T01:52:24;99071.21;;;20.92;16.98
77897;BME280;67092;64.282;21.056;2023-03-12T01:54:51;99067.18;;;20.94;16.99
77897;BME280;67092;64.282;21.056;2023-03-12T01:57:16;99067.86;;;20.70;16.99
77897;BME280;67092;64.282;21.056;2023-03-12T01:59:42;99069.36;;;21.12;16.85
77897;BME280;67092;64.282;21.056;2023-03-12T02:02:06;99066.91;;;20.88;17.00
77897;BME280;67092;64.282;21.056;2023-03-12T02:04:31;99063.58;;;20.77;16.89
77897;BME280;67092;64.282;21.056;2023-03-12T02:07:02;99066.34;;;20.55;17.04
77897;BME280;67092;64.282;21.056;2023-03-12T02:09:21;99064.70;;;20.94;16.96
77897;BME280;67092;64.282;21.056;2023-03-12T02:11:47;99066.79;;;21.09;16.83
77897;BME280;67092;64.282;21.056;2023-03-12T02:14:13;99066.85;;;21.41;16.60
77897;BME280;67092;64.282;21.056;2023-03-12T02:16:38;99066.46;;;21.38;16.60
77897;BME280;67092;64.282;21.056;2023-03-12T02:19:09;99067.36;;;20.89;16.73
77897;BME280;67092;64.282;21.056;2023-03-12T02:21:30;99069.55;;;21.34;16.59
77897;BME280;67092;64.282;21.056;2023-03-12T02:24:02;99068.13;;;21.15;16.74
77897;BME280;67092;64.282;21.056;2023-03-12T02:26:21;99067.57;;;21.12;16.74
77897;BME280;67092;64.282;21.056;2023-03-12T02:28:47;99066.83;;;21.18;16.65
77897;BME280;67092;64.282;21.056;2023-03-12T02:31:14;99067.65;;;20.99;16.64
77897;BME280;67092;64.282;21.056;2023-03-12T02:33:38;99064.85;;;21.15;16.71
77897;BME280;67092;64.282;21.056;2023-03-12T02:36:04;99061.89;;;21.04;16.76
77897;BME280;67092;64.282;21.056;2023-03-12T02:38:35;99061.19;;;21.18;16.68
77897;BME280;67092;64.282;21.056;2023-03-12T02:40:55;99061.05;;;21.13;16.73
77897;BME280;67092;64.282;21.056;2023-03-12T02:43:21;99057.32;;;21.09;16.75
77897;BME280;67092;64.282;21.056;2023-03-12T02:45:46;99059.62;;;21.32;16.58
77897;BME280;67092;64.282;21.056;2023-03-12T02:48:11;99061.81;;;21.02;16.63
77897;BME280;67092;64.282;21.056;2023-03-12T02:50:37;99066.39;;;21.20;16.63
77897;BME280;67092;64.282;21.056;2023-03-12T02:53:03;99067.93;;;20.87;16.71
77897;BME280;67092;64.282;21.056;2023-03-12T02:55:28;99070.03;;;20.86;16.94
77897;BME280;67092;64.282;21.056;2023-03-12T02:57:54;99070.02;;;20.39;16.93
77897;BME280;67092;64.282;21.056;2023-03-12T03:00:20;99070.54;;;20.72;17.02
77897;BME280;67092;64.282;21.056;2023-03-12T03:02:45;99069.21;;;21.12;16.94
77897;BME280;67092;64.282;21.056;2023-03-12T03:05:11;99076.83;;;20.61;17.13
77897;BME280;67092;64.282;21.056;2023-03-12T03:07:37;99073.74;;;21.07;16.82
77897;BME280;67092;64.282;21.056;2023-03-12T03:10:03;99072.86;;;20.68;16.92
77897;BME280;67092;64.282;21.056;2023-03-12T03:12:28;99073.60;;;21.43;16.60
77897;BME280;67092;64.282;21.056;2023-03-12T03:14:54;99070.84;;;20.71;16.94
77897;BME280;67092;64.282;21.056;2023-03-12T03:17:19;99069.63;;;20.88;16.83
77897;BME280;67092;64.282;21.056;2023-03-12T03:19:45;99069.45;;;21.03;16.91
77897;BME280;67092;64.282;21.056;2023-03-12T03:22:10;99067.74;;;21.34;16.71
77897;BME280;67092;64.282;21.056;2023-03-12T03:24:36;99066.85;;;21.26;16.74
77897;BME280;67092;64.282;21.056;2023-03-12T03:27:02;99066.75;;;21.28;16.65
77897;BME280;67092;64.282;21.056;2023-03-12T03:29:27;99063.49;;;21.16;16.81
77897;BME280;67092;64.282;21.056;2023-03-12T03:31:53;99063.74;;;21.43;16.49
77897;BME280;67092;64.282;21.056;2023-03-12T03:34:19;99065.52;;;21.19;16.84
77897;BME280;67092;64.282;21.056;2023-03-12T03:36:44;99065.62;;;21.22;16.79
77897;BME280;67092;64.282;21.056;2023-03-12T03:39:10;99064.11;;;21.35;16.66
77897;BME280;67092;64.282;21.056;2023-03-12T03:41:36;99069.22;;;21.28;16.67
77897;BME280;67092;64.282;21.056;2023-03-12T03:44:01;99068.08;;;20.77;16.86
77897;BME280;67092;64.282;21.056;2023-03-12T03:46:27;99065.88;;;21.11;16.64
77897;BME280;67092;64.282;21.056;2023-03-12T03:48:52;99067.40;;;21.41;16.60
77897;BME280;67092;64.282;21.056;2023-03-12T03:51:19;99068.27;;;21.13;16.62
77897;BME280;67092;64.282;21.056;2023-03-12T03:53:44;99068.64;;;20.80;16.65
77897;BME280;67092;64.282;21.056;2023-03-12T03:56:12;99069.27;;;20.87;16.93
77897;BME280;67092;64.282;21.056;2023-03-12T03:58:35;99068.40;;;21.02;16.82
77897;BME280;67092;64.282;21.056;2023-03-12T04:01:01;99067.59;;;21.23;16.66
77897;BME280;67092;64.282;21.056;2023-03-12T04:03:26;99068.91;;;21.32;16.61
77897;BME280;67092;64.282;21.056;2023-03-12T04:05:54;99071.06;;;21.16;16.94
77897;BME280;67092;64.282;21.056;2023-03-12T04:08:18;99070.74;;;21.17;16.77
77897;BME280;67092;64.282;21.056;2023-03-12T04:10:43;99067.83;;;21.01;16.89
77897;BME280;67092;64.282;21.056;2023-03-12T04:13:09;99070.30;;;21.34;16.97
77897;BME280;67092;64.282;21.056;2023-03-12T04:15:35;99072.29;;;21.55;16.62
77897;BME280;67092;64.282;21.056;2023-03-12T04:18:00;99072.22;;;20.61;17.11
77897;BME280;67092;64.282;21.056;2023-03-12T04:20:26;99071.83;;;21.03;17.09
77897;BME280;67092;64.282;21.056;2023-03-12T04:22:51;99073.85;;;21.03;17.03
77897;BME280;67092;64.282;21.056;2023-03-12T04:25:17;99076.79;;;21.06;16.98
77897;BME280;67092;64.282;21.056;2023-03-12T04:27:43;99074.74;;;20.99;16.88
77897;BME280;67092;64.282;21.056;2023-03-12T04:30:09;99075.46;;;21.21;16.94
77897;BME280;67092;64.282;21.056;2023-03-12T04:32:34;99073.50;;;21.17;16.99
77897;BME280;67092;64.282;21.056;2023-03-12T04:35:00;99074.85;;;20.72;17.28
77897;BME280;67092;64.282;21.056;2023-03-12T04:37:25;99071.83;;;21.26;16.89
77897;BME280;67092;64.282;21.056;2023-03-12T04:39:51;99076.43;;;20.94;16.78
77897;BME280;67092;64.282;21.056;2023-03-12T04:42:17;99075.71;;;21.07;16.85
77897;BME280;67092;64.282;21.056;2023-03-12T04:44:42;99073.19;;;20.77;17.09
77897;BME280;67092;64.282;21.056;2023-03-12T04:47:08;99070.62;;;21.06;16.88
77897;BME280;67092;64.282;21.056;2023-03-12T04:49:39;99073.27;;;21.26;16.91
77897;BME280;67092;64.282;21.056;2023-03-12T04:51:59;99074.68;;;21.19;16.80
77897;BME280;67092;64.282;21.056;2023-03-12T04:54:25;99071.81;;;20.60;17.08
77897;BME280;67092;64.282;21.056;2023-03-12T04:56:50;99072.42;;;20.94;17.17
77897;BME280;67092;64.282;21.056;2023-03-12T04:59:16;99072.02;;;21.24;16.98
77897;BME280;67092;64.282;21.056;2023-03-12T05:01:42;99068.16;;;20.71;17.13
77897;BME280;67092;64.282;21.056;2023-03-12T05:04:08;99069.24;;;20.87;17.21
77897;BME280;67092;64.282;21.056;2023-03-12T05:06:33;99074.46;;;20.75;17.31
77897;BME280;67092;64.282;21.056;2023-03-12T05:08:59;99071.05;;;20.69;17.16
77897;BME280;67092;64.282;21.056;2023-03-12T05:11:25;99071.64;;;21.05;17.07
77897;BME280;67092;64.282;21.056;2023-03-12T05:13:50;99070.69;;;20.96;16.96
77897;BME280;67092;64.282;21.056;2023-03-12T05:16:16;99073.90;;;20.82;17.24
77897;BME280;67092;64.282;21.056;2023-03-12T05:18:42;99073.28;;;20.41;17.18
77897;BME280;67092;64.282;21.056;2023-03-12T05:21:08;99075.80;;;20.52;17.25
77897;BME280;67092;64.282;21.056;2023-03-12T05:23:33;99070.37;;;20.61;17.00
77897;BME280;67092;64.282;21.056;2023-03-12T05:25:58;99069.93;;;20.61;17.18
77897;BME280;67092;64.282;21.056;2023-03-12T05:28:25;99070.20;;;20.56;17.21
77897;BME280;67092;64.282;21.056;2023-03-12T05:30:49;99074.21;;;20.84;17.15
77897;BME280;67092;64.282;21.056;2023-03-12T05:33:15;99072.67;;;21.04;17.03
77897;BME280;67092;64.282;21.056;2023-03-12T05:35:40;99073.68;;;20.80;17.01
77897;BME280;67092;64.282;21.056;2023-03-12T05:38:06;99072.84;;;20.99;17.03
77897;BME280;67092;64.282;21.056;2023-03-12T05:40:32;99075.33;;;20.79;17.15
77897;BME280;67092;64.282;21.056;2023-03-12T05:42:57;99073.55;;;20.72;17.02
77897;BME280;67092;64.282;21.056;2023-03-12T05:45:23;99073.20;;;20.81;17.13
77897;BME280;67092;64.282;21.056;2023-03-12T05:47:49;99076.64;;;20.60;17.11
77897;BME280;67092;64.282;21.056;2023-03-12T05:50:15;99075.38;;;20.94;17.07
77897;BME280;67092;64.282;21.056;2023-03-12T05:52:40;99076.56;;;20.70;17.22
77897;BME280;67092;64.282;21.056;2023-03-12T05:55:07;99075.65;;;21.06;17.17
77897;BME280;67092;64.282;21.056;2023-03-12T05:57:31;99072.08;;;20.95;17.05
77897;BME280;67092;64.282;21.056;2023-03-12T05:59:57;99076.62;;;20.95;16.90
77897;BME280;67092;64.282;21.056;2023-03-12T06:02:22;99078.42;;;21.27;17.01
77897;BME280;67092;64.282;21.056;2023-03-12T06:04:48;99080.02;;;20.78;17.19
77897;BME280;67092;64.282;21.056;2023-03-12T06:07:14;99080.90;;;20.90;17.16
77897;BME280;67092;64.282;21.056;2023-03-12T06:09:39;99079.59;;;20.93;16.98
77897;BME280;67092;64.282;21.056;2023-03-12T06:12:05;99078.26;;;20.93;17.14
77897;BME280;67092;64.282;21.056;2023-03-12T06:14:31;99081.91;;;20.71;17.37
77897;BME280;67092;64.282;21.056;2023-03-12T06:16:56;99082.00;;;20.84;17.28
77897;BME280;67092;64.282;21.056;2023-03-12T06:19:22;99084.62;;;21.20;16.86
77897;BME280;67092;64.282;21.056;2023-03-12T06:21:47;99087.35;;;20.88;17.19
77897;BME280;67092;64.282;21.056;2023-03-12T06:24:13;99082.78;;;21.20;17.06
77897;BME280;67092;64.282;21.056;2023-03-12T06:26:39;99084.35;;;21.06;17.06
77897;BME280;67092;64.282;21.056;2023-03-12T06:29:05;99085.98;;;20.97;17.24
77897;BME280;67092;64.282;21.056;2023-03-12T06:31:30;99086.55;;;21.04;17.23
77897;BME280;67092;64.282;21.056;2023-03-12T06:33:56;99086.13;;;20.85;17.10
77897;BME280;67092;64.282;21.056;2023-03-12T06:36:21;99090.48;;;21.38;16.74
77897;BME280;67092;64.282;21.056;2023-03-12T06:38:47;99086.55;;;21.07;17.14
77897;BME280;67092;64.282;21.056;2023-03-12T06:41:14;99089.22;;;21.08;16.96
77897;BME280;67092;64.282;21.056;2023-03-12T06:43:39;99089.88;;;20.86;17.07
77897;BME280;67092;64.282;21.056;2023-03-12T06:46:05;99092.05;;;21.06;17.15
77897;BME280;67092;64.282;21.056;2023-03-12T06:48:31;99095.85;;;20.92;17.24
77897;BME280;67092;64.282;21.056;2023-03-12T06:50:55;99091.41;;;21.18;17.08
77897;BME280;67092;64.282;21.056;2023-03-12T06:53:21;99094.52;;;20.94;17.08
77897;BME280;67092;64.282;21.056;2023-03-12T06:55:49;99094.56;;;20.88;17.17
77897;BME280;67092;64.282;21.056;2023-03-12T06:58:12;99099.43;;;20.68;17.29
77897;BME280;67092;64.282;21.056;2023-03-12T07:00:38;99098.49;;;20.76;17.42
77897;BME280;67092;64.282;21.056;2023-03-12T07:03:03;99094.95;;;21.13;17.18
77897;BME280;67092;64.282;21.056;2023-03-12T07:05:29;99097.81;;;21.20;17.17
77897;BME280;67092;64.282;21.056;2023-03-12T07:07:54;99099.67;;;21.16;17.01
77897;BME280;67092;64.282;21.056;2023-03-12T07:10:20;99103.96;;;20.63;17.37
77897;BME280;67092;64.282;21.056;2023-03-12T07:12:46;99103.07;;;21.40;17.02
77897;BME280;67092;64.282;21.056;2023-03-12T07:15:11;99106.63;;;21.07;17.23
77897;BME280;67092;64.282;21.056;2023-03-12T07:17:37;99107.05;;;20.65;17.36
77897;BME280;67092;64.282;21.056;2023-03-12T07:20:03;99106.02;;;20.90;17.20
77897;BME280;67092;64.282;21.056;2023-03-12T07:22:28;99101.61;;;21.20;17.14
77897;BME280;67092;64.282;21.056;2023-03-12T07:24:54;99100.74;;;21.14;17.18
77897;BME280;67092;64.282;21.056;2023-03-12T07:27:19;99102.79;;;21.52;16.94
77897;BME280;67092;64.282;21.056;2023-03-12T07:29:45;99103.03;;;20.82;17.32
77897;BME280;67092;64.282;21.056;2023-03-12T07:32:11;99096.24;;;21.40;17.28
77897;BME280;67092;64.282;21.056;2023-03-12T07:34:36;99095.27;;;21.59;17.13
77897;BME280;67092;64.282;21.056;2023-03-12T07:37:02;99093.58;;;20.89;17.30
77897;BME280;67092;64.282;21.056;2023-03-12T07:39:28;99098.50;;;20.74;17.61
77897;BME280;67092;64.282;21.056;2023-03-12T07:41:53;99098.82;;;20.79;17.54
77897;BME280;67092;64.282;21.056;2023-03-12T07:44:19;99097.14;;;20.79;17.62
77897;BME280;67092;64.282;21.056;2023-03-12T07:46:45;99093.00;;;21.56;17.29
77897;BME280;67092;64.282;21.056;2023-03-12T07:49:10;99094.10;;;21.14;17.52
77897;BME280;67092;64.282;21.056;2023-03-12T07:51:36;99087.15;;;20.66;17.62
77897;BME280;67092;64.282;21.056;2023-03-12T07:54:12;99091.23;;;21.46;17.29
77897;BME280;67092;64.282;21.056;2023-03-12T07:56:27;99089.89;;;21.66;17.17
77897;BME280;67092;64.282;21.056;2023-03-12T07:58:53;99088.57;;;21.24;17.50
77897;BME280;67092;64.282;21.056;2023-03-12T08:01:18;99086.61;;;20.99;17.66
77897;BME280;67092;64.282;21.056;2023-03-12T08:03:44;99084.33;;;20.72;17.69
77897;BME280;67092;64.282;21.056;2023-03-12T08:06:10;99081.62;;;21.71;17.34
77897;BME280;67092;64.282;21.056;2023-03-12T08:08:35;99082.29;;;21.24;17.51
77897;BME280;67092;64.282;21.056;2023-03-12T08:11:03;99084.37;;;21.31;17.41
77897;BME280;67092;64.282;21.056;2023-03-12T08:13:27;99081.58;;;21.32;17.59
77897;BME280;67092;64.282;21.056;2023-03-12T08:15:53;99081.15;;;21.24;17.51
77897;BME280;67092;64.282;21.056;2023-03-12T08:18:19;99076.48;;;21.44;17.61
77897;BME280;67092;64.282;21.056;2023-03-12T08:20:43;99078.00;;;21.56;17.51
77897;BME280;67092;64.282;21.056;2023-03-12T08:23:09;99074.13;;;21.63;17.43
77897;BME280;67092;64.282;21.056;2023-03-12T08:25:50;99073.99;;;21.14;17.42
77897;BME280;67092;64.282;21.056;2023-03-12T08:28:00;99074.38;;;21.46;17.56
77897;BME280;67092;64.282;21.056;2023-03-12T08:30:26;99074.16;;;20.95;17.69
77897;BME280;67092;64.282;21.056;2023-03-12T08:32:51;99074.21;;;21.30;17.31
77897;BME280;67092;64.282;21.056;2023-03-12T08:35:17;99074.43;;;21.22;17.35
77897;BME280;67092;64.282;21.056;2023-03-12T08:37:43;99072.32;;;20.81;17.56
77897;BME280;67092;64.282;21.056;2023-03-12T08:40:09;99071.83;;;20.82;17.63
77897;BME280;67092;64.282;21.056;2023-03-12T08:42:34;99070.91;;;20.77;17.85
77897;BME280;67092;64.282;21.056;2023-03-12T08:45:00;99071.25;;;20.92;17.73
77897;BME280;67092;64.282;21.056;2023-03-12T08:47:25;99071.15;;;21.51;17.36
77897;BME280;67092;64.282;21.056;2023-03-12T08:49:51;99069.81;;;21.08;17.61
77897;BME280;67092;64.282;21.056;2023-03-12T08:52:16;99063.86;;;21.04;17.61
77897;BME280;67092;64.282;21.056;2023-03-12T08:54:42;99067.12;;;21.43;17.35
77897;BME280;67092;64.282;21.056;2023-03-12T08:57:08;99067.30;;;21.01;17.51
77897;BME280;67092;64.282;21.056;2023-03-12T08:59:33;99061.76;;;20.78;17.46
77897;BME280;67092;64.282;21.056;2023-03-12T09:01:59;99062.61;;;20.84;17.48
77897;BME280;67092;64.282;21.056;2023-03-12T09:04:25;99060.95;;;21.20;17.09
77897;BME280;67092;64.282;21.056;2023-03-12T09:06:50;99060.41;;;21.01;16.92
77897;BME280;67092;64.282;21.056;2023-03-12T09:09:16;99060.33;;;21.09;16.44
77897;BME280;67092;64.282;21.056;2023-03-12T09:11:41;99061.22;;;21.05;16.41
77897;BME280;67092;64.282;21.056;2023-03-12T09:14:08;99056.10;;;20.82;16.14
77897;BME280;67092;64.282;21.056;2023-03-12T09:16:32;99060.94;;;21.08;16.00
77897;BME280;67092;64.282;21.056;2023-03-12T09:18:58;99066.28;;;21.43;15.75
77897;BME280;67092;64.282;21.056;2023-03-12T09:21:23;99072.49;;;20.81;15.53
77897;BME280;67092;64.282;21.056;2023-03-12T09:23:49;99077.21;;;20.55;15.41
77897;BME280;67092;64.282;21.056;2023-03-12T09:26:14;99078.42;;;20.52;15.31
77897;BME280;67092;64.282;21.056;2023-03-12T09:28:39;99076.38;;;20.58;15.31
77897;BME280;67092;64.282;21.056;2023-03-12T09:31:05;99078.81;;;20.73;15.14
77897;BME280;67092;64.282;21.056;2023-03-12T09:33:31;99080.27;;;20.49;15.27
77897;BME280;67092;64.282;21.056;2023-03-12T09:35:57;99076.29;;;20.75;15.08
77897;BME280;67092;64.282;21.056;2023-03-12T09:38:22;99075.00;;;20.56;15.20
77897;BME280;67092;64.282;21.056;2023-03-12T09:40:48;99070.37;;;20.83;14.99
77897;BME280;67092;64.282;21.056;2023-03-12T09:43:19;99075.64;;;20.38;15.34
77897;BME280;67092;64.282;21.056;2023-03-12T09:45:43;99073.98;;;20.34;15.26
77897;BME280;67092;64.282;21.056;2023-03-12T09:48:06;99073.24;;;20.76;15.05
77897;BME280;67092;64.282;21.056;2023-03-12T09:50:32;99075.14;;;20.79;15.12
77897;BME280;67092;64.282;21.056;2023-03-12T09:52:59;99070.62;;;20.54;15.26
77897;BME280;67092;64.282;21.056;2023-03-12T09:55:30;99070.04;;;20.54;15.32
77897;BME280;67092;64.282;21.056;2023-03-12T09:58:02;99074.44;;;20.51;15.12
77897;BME280;67092;64.282;21.056;2023-03-12T10:00:15;99073.74;;;19.79;14.34
77897;BME280;67092;64.282;21.056;2023-03-12T10:02:52;99072.74;;;20.15;14.09
77897;BME280;67092;64.282;21.056;2023-03-12T10:05:05;99072.56;;;19.80;14.08
77897;BME280;67092;64.282;21.056;2023-03-12T10:07:33;99073.04;;;19.78;14.00
77897;BME280;67092;64.282;21.056;2023-03-12T10:10:10;99078.17;;;20.35;13.66
77897;BME280;67092;64.282;21.056;2023-03-12T10:12:26;99078.07;;;20.29;13.73
77897;BME280;67092;64.282;21.056;2023-03-12T10:14:58;99077.69;;;20.31;13.75
77897;BME280;67092;64.282;21.056;2023-03-12T10:17:25;99080.13;;;20.05;13.86
77897;BME280;67092;64.282;21.056;2023-03-12T10:19:50;99081.31;;;19.69;13.87
77897;BME280;67092;64.282;21.056;2023-03-12T10:22:10;99087.25;;;19.48;13.86
77897;BME280;67092;64.282;21.056;2023-03-12T10:24:37;99088.04;;;20.01;13.84
77897;BME280;67092;64.282;21.056;2023-03-12T10:26:56;99086.21;;;19.46;13.97
77897;BME280;67092;64.282;21.056;2023-03-12T10:29:22;99081.60;;;19.39;14.04
77897;BME280;67092;64.282;21.056;2023-03-12T10:31:51;99081.85;;;19.61;14.01
77897;BME280;67092;64.282;21.056;2023-03-12T10:34:16;99080.67;;;19.45;14.10
77897;BME280;67092;64.282;21.056;2023-03-12T10:36:38;99080.81;;;19.00;14.38
77897;BME280;67092;64.282;21.056;2023-03-12T10:39:03;99082.63;;;19.01;14.35
77897;BME280;67092;64.282;21.056;2023-03-12T10:41:29;99071.28;;;19.93;14.09
77897;BME280;67092;64.282;21.056;2023-03-12T10:43:54;99071.84;;;19.54;14.00
77897;BME280;67092;64.282;21.056;2023-03-12T10:48:44;99074.36;;;19.36;14.05
77897;BME280;67092;64.282;21.056;2023-03-12T10:51:10;99073.93;;;20.09;13.58
77897;BME280;67092;64.282;21.056;2023-03-12T10:53:35;99073.72;;;19.86;13.85
77897;BME280;67092;64.282;21.056;2023-03-12T10:56:04;99075.28;;;19.22;14.10
77897;BME280;67092;64.282;21.056;2023-03-12T10:58:31;99071.08;;;19.52;14.06
77897;BME280;67092;64.282;21.056;2023-03-12T11:00:57;99071.48;;;19.81;13.90
77897;BME280;67092;64.282;21.056;2023-03-12T11:03:19;99065.56;;;19.66;13.95
77897;BME280;67092;64.282;21.056;2023-03-12T11:05:48;99064.86;;;19.68;13.92
77897;BME280;67092;64.282;21.056;2023-03-12T11:08:18;99065.15;;;19.35;14.12
77897;BME280;67092;64.282;21.056;2023-03-12T11:10:41;99061.98;;;19.69;13.91
77897;BME280;67092;64.282;21.056;2023-03-12T11:13:02;99063.36;;;19.59;13.99
77897;BME280;67092;64.282;21.056;2023-03-12T11:15:29;99058.82;;;19.93;13.80
77897;BME280;67092;64.282;21.056;2023-03-12T11:17:51;99054.87;;;19.63;13.94
77897;BME280;67092;64.282;21.056;2023-03-12T11:20:24;99052.70;;;19.76;13.91
77897;BME280;67092;64.282;21.056;2023-03-12T11:22:42;99053.73;;;19.73;13.91
77897;BME280;67092;64.282;21.056;2023-03-12T11:25:20;99057.36;;;20.33;13.56
77897;BME280;67092;64.282;21.056;2023-03-12T11:27:39;99059.27;;;19.42;13.97
77897;BME280;67092;64.282;21.056;2023-03-12T11:30:02;99063.65;;;19.53;14.06
77897;BME280;67092;64.282;21.056;2023-03-12T11:32:31;99063.99;;;19.19;14.17
77897;BME280;67092;64.282;21.056;2023-03-12T11:34:51;99063.03;;;19.59;14.20
77897;BME280;67092;64.282;21.056;2023-03-12T11:37:25;99066.29;;;19.82;13.92
77897;BME280;67092;64.282;21.056;2023-03-12T11:39:55;99069.15;;;19.12;14.32
77897;BME280;67092;64.282;21.056;2023-03-12T11:42:18;99067.30;;;19.40;14.19
77897;BME280;67092;64.282;21.056;2023-03-12T11:44:40;99068.31;;;19.36;14.06
77897;BME280;67092;64.282;21.056;2023-03-12T11:47:10;99065.54;;;19.21;14.16
77897;BME280;67092;64.282;21.056;2023-03-12T11:49:33;99069.99;;;19.86;13.93
77897;BME280;67092;64.282;21.056;2023-03-12T11:51:55;99071.63;;;19.32;14.07
77897;BME280;67092;64.282;21.056;2023-03-12T11:54:33;99071.47;;;19.83;13.93
77897;BME280;67092;64.282;21.056;2023-03-12T11:56:45;99076.55;;;19.60;14.07
77897;BME280;67092;64.282;21.056;2023-03-12T11:59:17;99075.70;;;19.59;14.08
77897;BME280;67092;64.282;21.056;2023-03-12T12:01:42;99071.50;;;19.54;14.08
77897;BME280;67092;64.282;21.056;2023-03-12T12:06:31;99069.97;;;19.45;14.17
77897;BME280;67092;64.282;21.056;2023-03-12T12:08:57;99068.77;;;20.20;13.75
77897;BME280;67092;64.282;21.056;2023-03-12T12:11:21;99073.53;;;20.23;13.79
77897;BME280;67092;64.282;21.056;2023-03-12T12:13:49;99064.83;;;20.01;14.01
77897;BME280;67092;64.282;21.056;2023-03-12T12:16:21;99066.89;;;19.84;14.15
77897;BME280;67092;64.282;21.056;2023-03-12T12:18:43;99068.40;;;19.58;14.32
77897;BME280;67092;64.282;21.056;2023-03-12T12:21:02;99066.00;;;19.89;14.29
77897;BME280;67092;64.282;21.056;2023-03-12T12:23:31;99067.00;;;19.44;14.45
77897;BME280;67092;64.282;21.056;2023-03-12T12:25:59;99066.50;;;19.68;14.19
77897;BME280;67092;64.282;21.056;2023-03-12T12:28:27;99064.89;;;19.86;14.29
77897;BME280;67092;64.282;21.056;2023-03-12T12:30:53;99066.08;;;19.97;14.35
77897;BME280;67092;64.282;21.056;2023-03-12T12:33:16;99061.36;;;19.54;14.38
77897;BME280;67092;64.282;21.056;2023-03-12T12:35:34;99060.67;;;19.20;14.33
77897;BME280;67092;64.282;21.056;2023-03-12T12:38:00;99061.31;;;19.61;14.24
77897;BME280;67092;64.282;21.056;2023-03-12T12:40:30;99062.49;;;19.73;14.30
77897;BME280;67092;64.282;21.056;2023-03-12T12:42:57;99063.99;;;19.65;14.43
77897;BME280;67092;64.282;21.056;2023-03-12T12:45:15;99062.14;;;19.99;14.31
77897;BME280;67092;64.282;21.056;2023-03-12T12:47:44;99063.97;;;20.61;14.07